»·PEaware :: SWA531 KPBI-KATL

SWA531 :: KPBI-KATL

FLIGHT INFORMATION

Flight Status: Arrived
Operator:
Southwest Airlines
More flights by this operator :: More flights under this callsign
Pilot: Jamyson D. (13674)
Aircraft: BOEING 737-800
(B738)
More flights by this aircraft type
Origin: KPBI Palm Beach Intl
United States
Destination: KATL Hartsfield-Jackson Atlanta
United States
More flights between these airports :: More routes between these airports
Route: TBIRD2 SHEDS MATLK Q77 WASUL Q77 SHRKS/ LAIRI LARZZ JJEDI2
File this flight plan on PilotEdge
Remarks: RMK / SIMBRIEF
Altitude:
(Current/Filed)
35,000ft
Speed:
(Current/Filed)
465kts
Departed: 25-Mar-20 01:20 PM
Arrived: 25-Mar-20 02:50 PM
Distance/Time
Traveled:
474nm/1:30
Distance/Time
To Go:
Arrived

Flight Plot

Page will automatically refresh every two minutes.

Flight plan parsing failed; only flown route is shown


Map Options




Map Legend


Flown Route
Filed Route
Departure Airport
Arrival Airport
Navaid (VOR, NDB)
Fix

Horizontal Profiles

Position Reports

Time Latitude Longitude Heading Altitude Ground
Speed
25-Mar-20 13:13 26.688720 -80.093009 141 23ft 0kts
25-Mar-20 13:14 26.688719 -80.093008 141 23ft 0kts
25-Mar-20 13:15 26.686215 -80.094570 135 24ft 15kts
25-Mar-20 13:16 26.683606 -80.092519 95 24ft 15kts
25-Mar-20 13:17 26.683296 -80.085051 90 23ft 28kts
25-Mar-20 13:18 26.681925 -80.078942 272 21ft 25kts
25-Mar-20 13:19 26.683748 -80.118591 268 1418ft 162kts
25-Mar-20 13:20 26.686070 -80.179715 271 3133ft 236kts
25-Mar-20 13:21 26.713390 -80.250411 311 6436ft 265kts
25-Mar-20 13:22 26.778990 -80.292422 333 9728ft 282kts
25-Mar-20 13:23 26.857687 -80.329724 333 11634ft 335kts
25-Mar-20 13:24 26.944900 -80.370420 333 14493ft 342kts
25-Mar-20 13:25 27.032485 -80.411374 333 17215ft 344kts
25-Mar-20 13:26 27.121370 -80.453009 333 19543ft 351kts
25-Mar-20 13:27 27.205525 -80.509170 322 21673ft 355kts
25-Mar-20 13:28 27.286427 -80.574958 323 23519ft 364kts
25-Mar-20 13:29 27.373066 -80.636576 327 25256ft 372kts
25-Mar-20 13:30 27.462098 -80.698050 326 26850ft 379kts
25-Mar-20 13:31 27.552823 -80.760805 325 28306ft 385kts
25-Mar-20 13:32 27.645000 -80.824686 325 29612ft 392kts
25-Mar-20 13:33 27.737799 -80.889118 325 31096ft 389kts
25-Mar-20 13:34 27.828659 -80.953020 320 32704ft 379kts
25-Mar-20 13:35 27.906096 -81.030789 317 34203ft 369kts
25-Mar-20 13:36 27.982989 -81.108110 317 34974ft 373kts
25-Mar-20 13:37 28.059797 -81.183731 318 34975ft 361kts
25-Mar-20 13:38 28.137408 -81.258091 318 34985ft 368kts
25-Mar-20 13:39 28.215065 -81.332788 318 34991ft 365kts
25-Mar-20 13:40 28.292611 -81.407259 321 34974ft 368kts
25-Mar-20 13:41 28.387854 -81.454114 333 34966ft 375kts
25-Mar-20 13:42 28.484996 -81.497272 333 34965ft 374kts
25-Mar-20 13:43 28.581759 -81.540494 333 34963ft 374kts
25-Mar-20 13:44 28.678475 -81.583547 336 34975ft 375kts
25-Mar-20 13:45 28.784699 -81.596370 347 34977ft 386kts
25-Mar-20 13:46 28.891279 -81.605946 347 34975ft 384kts
25-Mar-20 13:47 28.997766 -81.615662 347 34968ft 384kts
25-Mar-20 13:48 29.104046 -81.625358 347 34946ft 383kts
25-Mar-20 13:49 29.197475 -81.633904 347 34953ft 382kts
25-Mar-20 13:50 29.303477 -81.643620 346 34953ft 381kts
25-Mar-20 13:51 29.409614 -81.653415 346 34973ft 382kts
25-Mar-20 13:52 29.515208 -81.663154 346 34975ft 381kts
25-Mar-20 13:53 29.620858 -81.672903 346 34972ft 381kts
25-Mar-20 13:54 29.726101 -81.682641 346 34938ft 381kts
25-Mar-20 13:55 29.831551 -81.692425 345 34936ft 381kts
25-Mar-20 13:56 29.937117 -81.702222 345 34933ft 381kts
25-Mar-20 13:57 30.042834 -81.712055 345 34914ft 380kts
25-Mar-20 13:58 30.148247 -81.721887 345 34918ft 381kts
25-Mar-20 13:59 30.253723 -81.731735 345 34939ft 380kts
25-Mar-20 14:00 30.359242 -81.741615 345 34936ft 379kts
25-Mar-20 14:01 30.464407 -81.751485 345 34927ft 379kts
25-Mar-20 14:02 30.569377 -81.761355 345 34913ft 379kts
25-Mar-20 14:03 30.667113 -81.791251 326 34914ft 358kts
25-Mar-20 14:04 30.756458 -81.843477 327 34907ft 358kts
25-Mar-20 14:05 30.845663 -81.895114 327 34905ft 357kts
25-Mar-20 14:06 30.934357 -81.946575 327 34901ft 356kts
25-Mar-20 14:07 31.022697 -81.997943 326 34897ft 355kts
25-Mar-20 14:08 31.109993 -82.048803 326 34908ft 358kts
25-Mar-20 14:09 31.198868 -82.100684 326 34911ft 355kts
25-Mar-20 14:10 31.287008 -82.152256 326 34912ft 354kts
25-Mar-20 14:11 31.374806 -82.203733 326 34911ft 353kts
25-Mar-20 14:12 31.462982 -82.255534 326 34913ft 353kts
25-Mar-20 14:13 31.550529 -82.307080 326 34918ft 353kts
25-Mar-20 14:14 31.637943 -82.358653 326 34904ft 352kts
25-Mar-20 14:15 31.725610 -82.410488 326 34903ft 352kts
25-Mar-20 14:16 31.812938 -82.462229 326 34902ft 352kts
25-Mar-20 14:17 31.900340 -82.514125 326 34900ft 352kts
25-Mar-20 14:18 31.983875 -82.571902 315 34905ft 343kts
25-Mar-20 14:19 32.055577 -82.645782 315 34886ft 341kts
25-Mar-20 14:20 32.127433 -82.719235 314 34919ft 343kts
25-Mar-20 14:21 32.198150 -82.791532 314 34919ft 334kts
25-Mar-20 14:23 32.268725 -82.863861 314 34858ft 339kts
25-Mar-20 14:24 32.340427 -82.937479 315 32792ft 341kts
25-Mar-20 14:25 32.413170 -83.012461 315 30428ft 354kts
25-Mar-20 14:26 32.486051 -83.087447 315 28364ft 333kts
25-Mar-20 14:27 32.556497 -83.160155 315 26479ft 341kts
25-Mar-20 14:28 32.625205 -83.231285 315 24622ft 318kts
25-Mar-20 14:29 32.694190 -83.302930 315 22718ft 324kts
25-Mar-20 14:30 32.759878 -83.371302 314 20911ft 319kts
25-Mar-20 14:31 32.826510 -83.440719 314 19011ft 309kts
25-Mar-20 14:32 32.891103 -83.508284 315 17188ft 317kts
25-Mar-20 14:33 32.954764 -83.574844 314 15678ft 290kts
25-Mar-20 14:34 33.017323 -83.640538 315 13916ft 300kts
25-Mar-20 14:35 33.078708 -83.704993 315 12213ft 289kts
25-Mar-20 14:36 33.135420 -83.764578 315 11503ft 257kts
25-Mar-20 14:37 33.189230 -83.821571 315 10279ft 271kts
25-Mar-20 14:38 33.240896 -83.882816 313 9269ft 256kts
25-Mar-20 14:39 33.291166 -83.942732 313 8063ft 254kts
25-Mar-20 14:40 33.352096 -83.984829 344 7967ft 264kts
25-Mar-20 14:40 33.408302 -84.009197 325 7325ft 256kts
25-Mar-20 14:42 33.477124 -84.065402 324 6283ft 254kts
25-Mar-20 14:43 33.534658 -84.113059 324 5283ft 251kts
25-Mar-20 14:43 33.582364 -84.152536 324 4442ft 248kts
25-Mar-20 14:44 33.637800 -84.200396 304 3421ft 236kts
25-Mar-20 14:46 33.634480 -84.281868 272 2722ft 191kts
25-Mar-20 14:46 33.634598 -84.328842 272 2331ft 154kts
25-Mar-20 14:47 33.634674 -84.380583 273 1507ft 154kts
25-Mar-20 14:48 33.634771 -84.426097 268 1015ft 70kts
25-Mar-20 14:49 33.636328 -84.431026 12 1028ft 9kts
25-Mar-20 14:50 33.637878 -84.432064 309 1028ft 0kts
25-Mar-20 14:51 33.634629 -84.346475 273 2061ft 156kts
25-Mar-20 14:52 33.634709 -84.414080 273 1016ft 140kts
25-Mar-20 14:53 33.634642 -84.410042 274 1044ft 149kts
25-Mar-20 14:54 33.634824 -84.429149 273 1014ft 43kts

Navigation Log

Ident Type
Flight plan parsing failed, navigation log unavailable